Aérodrome :
LOGIN :

S'inscrire | Disclaimer

   EN    FR    IT 

 










Légende :    VFR   VFR Marginal   IFR   IFR Intensif   IFR Très Intensif
Visi : 
Plafond : 
>= 8 km
>= 3000ft
5 à 8 km
1000 à 3000 ft
1500m à 5 km
500 à 1000 ft
800 à 1500m
200 à 500 ft
< 800m
< 200 ft
Symboles :   Orages  Brouillard  Fortes neiges  Fortes précipitations  Vent > 20 kt
SIGMETs :   Divers  Orages  Givrage  Turbulence  Onde Orograph.  Cendres Volcan.







- Altitude de l'aérodrome : 138 ft
- Code IATA : BIO


LEBB - Bilbao

DERNIER METAR :
  • 221200Z 36010KT 340V040 9999 FEW035 SCT045 09/M00 Q1015 NOSIG

METARs EXPIRÉS :
  • 221130Z 03009KT 010V070 9999 FEW035 SCT045 09/01 Q1015 NOSIG
  • 221100Z 04009KT 9999 FEW035 SCT045 09/01 Q1015 NOSIG
  • 221030Z 01009KT 340V050 9999 FEW035 SCT045 08/01 Q1016 NOSIG
  • 221000Z 01006KT 330V040 9999 FEW035 SCT045 08/01 Q1016 NOSIG
  • 220930Z 03006KT 310V080 9999 FEW035 SCT045 07/00 Q1015 NOSIG

TAF TAF LEBB
Valide du 22 à 12h jusqu'au 23 à 12h UTC


221100Z 2212/2312 01009KT 9999 BKN040 TX09/2214Z TN00/2307Z
Pas de NOTAMs connus pour ce terrain.



MET'MAP, la Météo Aéronautique d'un coup d'oeil ! - Copyright ORBIFLY Décembre 2007 - Disclaimer

ORBIFLY MET'MAP TEAM :

Programmation & Développement : Alexandra Zaïnal
Conception & Développement : Baudouin d'Aumeries
Co-Programmation & Développement : Marc-Olivier Méhu
Soutien technique & logistique : Manuel Goepfert

Contact : metmap@orbifly.com




SOURCES & CREDITS :

   NOAA